Cohocton, New York
Current Conditions -  °F | °C
As of 9:54 PM on Monday 20 Oct 2014 (Local Time) from KDSV Reporting Station
Light Rain Light Rain  
Wind Chill: 51°   Ceiling: 5000
Heat Index: 51°   Visibility: 10mi
Dew Point: 44°   Wind: 8mph
Humidity: 77%   Direction: 110°ESE
Pressure: 29.86"   Gusts: NA
Location:  42.5°N, 77.51°W
Report Text: KDSV 210154Z AUTO 11007KT 10SM -RA OVC050 11/07 A2986 RMK AO2 RAE13B49 SLP123 P0000 T01060067
Loading
Personal Weather Stations






























Interactive Weather Map
Tropical Storm Tracking
New forecast layout! Learn more

10-Day Weather Forecast

Advertisements
Track Severe Weather on mobile